Time;durP1;ratioP1;P1;durP2;ratioP2;P2;SDS_P1;SDS_P2;PMS_P1;PMS_P2;Temp;Humidity;BMP_temperature;BMP_pressure;BME280_temperature;BME280_humidity;BME280_pressure;Samples;Min_cycle;Max_cycle;Signal;HPM_P1;HPM_P2
2023/01/20 01:46:35;;;;;;;16.13;8.50;;;1.30;99.90;;;;;;5105834;27;20433;-67
2023/01/20 01:49:11;;;;;;;13.43;9.50;;;1.30;99.90;;;;;;5125219;27;20473;-68
2023/01/20 01:51:46;;;;;;;12.63;9.53;;;1.30;99.90;;;;;;5131730;27;21280;-69
2023/01/20 01:54:18;;;;;;;16.63;10.80;;;1.30;99.90;;;;;;5133047;27;20466;-69
2023/01/20 01:56:52;;;;;;;15.93;10.60;;;1.30;99.90;;;;;;5132977;27;20869;-69
2023/01/20 01:59:21;;;;;;;15.97;10.83;;;1.40;99.90;;;;;;5139455;27;20476;-69
2023/01/20 02:01:52;;;;;;;14.97;10.50;;;1.30;99.90;;;;;;5134698;27;20466;-68
2023/01/20 02:04:30;;;;;;;13.60;11.33;;;1.30;99.90;;;;;;5131600;27;20474;-69
2023/01/20 02:07:03;;;;;;;16.53;12.10;;;1.30;99.90;;;;;;5131304;27;20470;-68
2023/01/20 02:09:31;;;;;;;17.60;11.73;;;1.30;99.90;;;;;;5132416;27;20462;-69
2023/01/20 02:12:11;;;;;;;17.17;12.80;;;1.30;99.90;;;;;;5127358;27;21012;-69
2023/01/20 02:14:47;;;;;;;18.40;13.40;;;1.20;99.90;;;;;;5132546;27;20921;-68
2023/01/20 02:17:25;;;;;;;21.37;13.90;;;1.20;99.90;;;;;;5132433;27;20515;-69
2023/01/20 02:20:41;;;;;;;17.73;13.70;;;1.20;99.90;;;;;;5130181;27;20471;-69
2023/01/20 02:23:29;;;;;;;17.97;13.83;;;1.30;99.90;;;;;;5057145;28;20488;-68
2023/01/20 02:26:36;;;;;;;20.07;14.90;;;1.30;99.90;;;;;;5057290;28;20477;-68
2023/01/20 02:30:05;;;;;;;18.70;14.70;;;1.20;99.90;;;;;;5116050;27;20531;-69
2023/01/20 02:32:47;;;;;;;20.90;15.50;;;1.20;99.90;;;;;;5021814;28;20736;-69
2023/01/20 02:35:35;;;;;;;20.00;15.77;;;1.20;99.90;;;;;;5028555;28;20498;-68
2023/01/20 02:38:17;;;;;;;23.10;16.57;;;1.20;99.90;;;;;;5107897;27;20875;-69
2023/01/20 02:43:48;;;;;;;25.03;17.83;;;1.20;99.90;;;;;;5122106;27;20515;-68
2023/01/20 02:46:31;;;;;;;24.10;18.40;;;1.20;99.90;;;;;;5128427;27;20453;-69
2023/01/20 02:49:09;;;;;;;25.10;18.30;;;1.20;99.90;;;;;;5135707;27;20482;-69
2023/01/20 02:52:07;;;;;;;24.87;18.17;;;1.20;99.90;;;;;;5133545;27;20478;-68
2023/01/20 02:54:39;;;;;;;26.27;18.50;;;1.20;99.90;;;;;;5122494;27;20523;-69
2023/01/20 02:57:12;;;;;;;30.40;18.80;;;1.10;99.90;;;;;;5123587;27;20535;-69
2023/01/20 02:59:46;;;;;;;27.30;18.73;;;1.10;99.90;;;;;;5126831;27;20496;-69
2023/01/20 03:02:20;;;;;;;27.60;19.00;;;1.10;99.90;;;;;;5120009;27;20485;-68
2023/01/20 03:04:54;;;;;;;26.20;19.03;;;1.10;99.90;;;;;;5123850;27;20463;-69
2023/01/20 03:07:34;;;;;;;28.60;20.23;;;1.10;99.90;;;;;;5118391;27;20470;-70
2023/01/20 03:10:11;;;;;;;27.50;20.37;;;1.10;99.90;;;;;;5120896;27;20571;-69
2023/01/20 03:12:45;;;;;;;31.10;20.53;;;1.10;99.90;;;;;;5112335;27;20517;-69
2023/01/20 03:15:26;;;;;;;28.23;20.73;;;1.10;99.90;;;;;;5119350;27;20466;-68
2023/01/20 03:17:54;;;;;;;30.33;21.60;;;1.20;99.90;;;;;;5121970;27;20489;-68
2023/01/20 03:20:27;;;;;;;29.83;19.63;;;1.20;99.90;;;;;;5136185;27;21345;-69
2023/01/20 03:22:54;;;;;;;29.00;21.07;;;1.20;99.90;;;;;;5137525;27;20485;-69
2023/01/20 03:25:23;;;;;;;31.00;21.00;;;1.20;99.90;;;;;;5138046;27;21677;-69
2023/01/20 03:27:53;;;;;;;33.20;21.73;;;1.10;99.90;;;;;;5138575;27;20466;-69
2023/01/20 03:30:30;;;;;;;36.30;23.63;;;1.10;99.90;;;;;;5137473;27;20470;-69
2023/01/20 03:33:07;;;;;;;31.03;22.50;;;1.10;99.90;;;;;;5136907;27;20483;-69
2023/01/20 03:35:44;;;;;;;32.27;22.37;;;1.10;99.90;;;;;;5129991;27;20518;-69
2023/01/20 03:38:14;;;;;;;33.87;23.40;;;1.10;99.90;;;;;;5140227;27;20496;-68
2023/01/20 03:40:48;;;;;;;30.23;22.57;;;1.10;99.90;;;;;;5134852;27;20841;-69
2023/01/20 03:43:26;;;;;;;29.23;22.47;;;1.10;99.90;;;;;;5132337;27;20486;-69
2023/01/20 03:46:02;;;;;;;30.80;22.80;;;1.10;99.90;;;;;;5133487;27;20984;-69
2023/01/20 03:48:40;;;;;;;31.97;23.77;;;1.10;99.90;;;;;;5135383;27;20541;-69
2023/01/20 03:51:20;;;;;;;31.73;21.47;;;1.10;99.90;;;;;;5120215;27;20472;-69
2023/01/20 03:53:54;;;;;;;34.03;24.57;;;1.10;99.90;;;;;;5121499;27;20494;-69
2023/01/20 03:56:35;;;;;;;40.43;24.47;;;1.10;99.90;;;;;;5127859;27;20473;-69
2023/01/20 04:02:48;;;;;;;36.73;23.90;;;1.10;99.90;;;;;;5103009;27;20446;-69
2023/01/20 04:05:17;;;;;;;37.13;24.27;;;1.10;99.90;;;;;;5110981;27;20475;-69
2023/01/20 04:07:52;;;;;;;37.23;24.20;;;1.10;99.90;;;;;;5117675;27;20848;-69
2023/01/20 04:10:25;;;;;;;33.20;24.10;;;1.10;99.90;;;;;;5125769;27;20813;-69
2023/01/20 04:12:56;;;;;;;32.47;23.10;;;1.10;99.90;;;;;;5118576;27;20494;-69
2023/01/20 04:15:30;;;;;;;34.70;24.93;;;1.10;99.90;;;;;;5119690;27;20497;-69
2023/01/20 04:18:09;;;;;;;35.93;24.87;;;1.10;99.90;;;;;;5119898;27;20514;-69
2023/01/20 04:20:41;;;;;;;32.23;22.87;;;1.10;99.90;;;;;;5117494;27;20466;-69
2023/01/20 04:23:21;;;;;;;34.87;23.80;;;1.10;99.90;;;;;;5123068;27;20497;-69
2023/01/20 04:25:54;;;;;;;33.60;22.20;;;1.10;99.90;;;;;;5125601;27;20477;-69
2023/01/20 04:28:24;;;;;;;34.30;22.53;;;1.10;99.90;;;;;;5124206;27;20467;-69
2023/01/20 04:30:59;;;;;;;36.47;23.13;;;1.10;99.90;;;;;;5119686;27;21706;-68
2023/01/20 04:33:38;;;;;;;34.20;22.57;;;1.10;99.90;;;;;;5124603;27;20892;-69
2023/01/20 04:36:10;;;;;;;37.23;23.93;;;1.10;99.90;;;;;;5130886;27;20457;-69
2023/01/20 04:38:39;;;;;;;34.50;22.07;;;1.10;99.90;;;;;;5123079;27;20494;-67
2023/01/20 04:41:14;;;;;;;32.83;21.70;;;1.10;99.90;;;;;;5132521;27;20462;-69
2023/01/20 04:43:46;;;;;;;31.80;22.70;;;1.10;99.90;;;;;;5124538;27;20481;-69
2023/01/20 04:46:21;;;;;;;31.30;21.77;;;1.10;99.90;;;;;;5129115;27;20470;-69
2023/01/20 04:48:52;;;;;;;31.40;21.27;;;1.10;99.90;;;;;;5129710;27;20478;-69
2023/01/20 04:51:21;;;;;;;31.07;20.90;;;1.10;99.90;;;;;;5129665;27;20462;-69
2023/01/20 04:53:56;;;;;;;31.67;22.20;;;1.10;99.90;;;;;;5129265;27;20487;-69
2023/01/20 04:56:24;;;;;;;33.40;22.10;;;1.20;99.90;;;;;;5129012;27;20485;-68
2023/01/20 04:58:55;;;;;;;33.03;21.57;;;1.20;99.90;;;;;;5122613;27;21027;-68
2023/01/20 05:01:29;;;;;;;32.33;21.33;;;1.20;99.90;;;;;;5130721;27;20481;-68
2023/01/20 05:03:59;;;;;;;31.00;20.83;;;1.20;99.90;;;;;;5116302;27;20486;-69
2023/01/20 05:06:29;;;;;;;29.47;19.77;;;1.20;99.90;;;;;;5119040;27;20543;-69
2023/01/20 05:09:04;;;;;;;33.73;20.07;;;1.20;99.90;;;;;;5116811;27;20466;-69
2023/01/20 11:20:05;;;;;;;14.83;10.80;;;3.60;99.90;;;;;;6105285;23;20736;31
2023/01/20 11:22:37;;;;;;;17.13;11.80;;;3.70;99.90;;;;;;5049340;22;21493;-71
2023/01/20 11:25:06;;;;;;;16.03;10.53;;;3.70;99.90;;;;;;4970668;28;20473;-71
2023/01/20 11:27:41;;;;;;;18.20;11.70;;;3.70;99.90;;;;;;4980509;28;20503;-71
2023/01/20 11:30:24;;;;;;;15.47;10.87;;;3.70;99.90;;;;;;4977047;28;20499;-74
2023/01/20 11:33:08;;;;;;;13.17;10.13;;;3.60;99.90;;;;;;4982066;28;20669;-71
2023/01/20 11:35:36;;;;;;;13.77;10.03;;;3.70;99.90;;;;;;4978812;28;20474;-71
2023/01/20 11:38:25;;;;;;;15.13;10.70;;;3.70;99.90;;;;;;4976945;28;21019;-77
2023/01/20 11:40:55;;;;;;;15.67;11.07;;;3.70;99.90;;;;;;4970463;28;21019;-71
2023/01/20 11:43:31;;;;;;;14.93;10.40;;;3.70;99.90;;;;;;4902142;28;20501;-71
2023/01/20 11:46:21;;;;;;;17.13;10.50;;;3.70;99.90;;;;;;4948885;28;20474;-71
2023/01/20 11:48:51;;;;;;;16.27;10.70;;;3.80;99.90;;;;;;4953544;28;20483;-72
2023/01/20 11:51:21;;;;;;;14.37;9.83;;;3.90;99.90;;;;;;4964824;28;20474;-71
2023/01/20 11:53:50;;;;;;;15.07;10.00;;;4.00;99.90;;;;;;4958015;28;21103;-71
2023/01/20 11:56:22;;;;;;;15.20;11.10;;;4.10;99.90;;;;;;4960471;28;20469;-71
2023/01/20 11:58:54;;;;;;;20.17;10.77;;;4.10;99.90;;;;;;4962941;28;20500;-72
2023/01/20 12:01:24;;;;;;;13.97;10.40;;;4.30;99.90;;;;;;4960653;28;20477;-72
2023/01/20 12:04:15;;;;;;;15.60;10.37;;;4.50;99.90;;;;;;4953474;28;20490;-71
2023/01/20 12:07:00;;;;;;;13.80;10.43;;;4.60;99.90;;;;;;4986647;23;20514;-91
2023/01/20 12:09:47;;;;;;;21.43;11.40;;;4.60;99.90;;;;;;4959098;28;20478;-91
2023/01/20 12:12:27;;;;;;;14.63;10.23;;;4.50;99.90;;;;;;4960489;28;20467;-90
2023/01/20 12:15:05;;;;;;;15.10;10.63;;;4.60;99.90;;;;;;4960013;28;20464;-91
2023/01/20 12:17:41;;;;;;;16.20;11.20;;;4.60;99.90;;;;;;4949695;28;20479;-92
2023/01/20 12:20:15;;;;;;;15.27;11.03;;;4.70;99.90;;;;;;4921418;29;20477;-91
2023/01/20 12:22:59;;;;;;;15.03;10.60;;;4.80;99.90;;;;;;4931818;28;20498;-92
2023/01/20 12:25:42;;;;;;;14.57;10.70;;;4.90;99.90;;;;;;4930624;29;20469;-92
2023/01/20 12:28:18;;;;;;;17.07;11.83;;;5.10;99.90;;;;;;4935497;28;20510;-91
2023/01/20 12:30:59;;;;;;;20.07;15.67;;;5.10;99.90;;;;;;4946947;28;20555;-92
2023/01/20 12:33:34;;;;;;;15.70;12.77;;;5.00;99.90;;;;;;4941556;28;20476;-90
2023/01/20 12:36:39;;;;;;;17.33;11.30;;;5.00;99.90;;;;;;4944595;28;20546;-88
2023/01/20 12:39:47;;;;;;;20.60;14.40;;;4.90;99.90;;;;;;4944142;28;20487;-90
2023/01/20 12:43:00;;;;;;;17.43;13.23;;;4.80;99.90;;;;;;4917383;28;20471;-90
2023/01/20 12:45:48;;;;;;;18.90;14.57;;;4.80;99.90;;;;;;4939664;28;20478;-90
2023/01/20 12:48:38;;;;;;;13.67;10.50;;;4.80;99.90;;;;;;4945236;28;20484;-91
2023/01/20 12:51:20;;;;;;;16.00;11.70;;;4.80;99.90;;;;;;4926295;28;20472;-89
2023/01/20 12:54:18;;;;;;;16.27;12.07;;;4.90;99.90;;;;;;4927290;29;20466;-89
2023/01/20 12:57:15;;;;;;;15.40;12.17;;;5.00;99.90;;;;;;4924276;29;20506;-89
2023/01/20 13:00:01;;;;;;;13.67;11.77;;;5.00;99.90;;;;;;4928745;29;20507;-89
2023/01/20 13:03:13;;;;;;;19.33;12.27;;;5.00;99.90;;;;;;4934513;29;20468;-90
2023/01/20 13:06:06;;;;;;;15.87;12.00;;;5.10;99.90;;;;;;4934078;28;20482;-86
2023/01/20 13:08:53;;;;;;;16.63;12.17;;;5.10;99.90;;;;;;4930028;29;21188;-90
2023/01/20 13:11:48;;;;;;;23.37;17.20;;;5.30;99.90;;;;;;4930690;29;20476;-90
2023/01/20 13:14:27;;;;;;;31.60;23.20;;;5.30;99.90;;;;;;4927370;29;20464;-89
2023/01/20 13:17:14;;;;;;;20.20;14.80;;;5.40;99.90;;;;;;4926868;29;20499;-89
2023/01/20 13:20:05;;;;;;;17.67;13.70;;;5.50;99.90;;;;;;4934974;29;20801;-89
2023/01/20 13:22:40;;;;;;;19.13;13.57;;;5.50;99.90;;;;;;4936861;29;20481;-90
2023/01/20 13:25:18;;;;;;;18.57;13.13;;;5.50;99.90;;;;;;4942174;29;20476;-86
2023/01/20 13:28:18;;;;;;;16.87;12.80;;;5.40;99.90;;;;;;4943393;28;20500;-88
2023/01/20 13:30:56;;;;;;;19.27;12.47;;;5.40;99.90;;;;;;4926406;29;20504;-86
2023/01/20 13:33:48;;;;;;;16.10;11.10;;;5.40;99.90;;;;;;4944556;29;20480;-87
2023/01/20 13:36:19;;;;;;;17.33;11.43;;;5.40;99.90;;;;;;4944405;29;20455;-89
2023/01/20 13:39:11;;;;;;;14.97;10.77;;;5.40;99.90;;;;;;4947116;29;20507;-90
2023/01/20 13:41:50;;;;;;;15.33;11.03;;;5.50;99.90;;;;;;4947160;29;20479;-89
2023/01/20 13:44:37;;;;;;;13.70;10.37;;;5.60;99.90;;;;;;4945725;29;20464;-89
2023/01/20 13:47:10;;;;;;;18.20;11.17;;;5.60;99.90;;;;;;4949342;29;20567;-88
2023/01/20 13:50:20;;;;;;;14.47;10.80;;;5.70;99.90;;;;;;4921254;28;20538;-89
2023/01/20 13:53:34;;;;;;;15.53;10.97;;;5.70;99.90;;;;;;4907034;29;20468;-89
2023/01/20 13:56:28;;;;;;;13.93;10.80;;;5.80;99.90;;;;;;4902835;29;20557;-89
2023/01/20 13:59:07;;;;;;;16.93;11.43;;;5.90;99.90;;;;;;4926868;29;20479;-90
2023/01/20 14:01:42;;;;;;;15.90;11.90;;;5.90;99.90;;;;;;4925127;29;20480;-89
2023/01/20 14:04:17;;;;;;;15.37;10.97;;;6.00;99.90;;;;;;4930734;29;20489;-91
2023/01/20 14:06:51;;;;;;;12.37;10.10;;;6.10;99.90;;;;;;4926455;29;20500;-91
2023/01/20 14:09:29;;;;;;;13.53;10.37;;;6.00;99.90;;;;;;4937800;29;20475;-90
2023/01/20 14:12:05;;;;;;;13.13;10.10;;;6.10;99.90;;;;;;4923291;29;20506;-88
2023/01/20 14:14:35;;;;;;;15.23;10.60;;;6.20;99.90;;;;;;4926766;29;20472;-92
2023/01/20 14:17:04;;;;;;;15.00;11.00;;;6.40;99.90;;;;;;4930705;29;20498;-82
2023/01/20 14:19:35;;;;;;;13.57;10.90;;;6.70;99.90;;;;;;4932609;29;20498;-80
2023/01/20 14:22:16;;;;;;;17.77;11.60;;;6.90;99.90;;;;;;4937182;29;20487;-79
2023/01/20 14:24:47;;;;;;;15.27;11.67;;;6.70;99.90;;;;;;4928392;29;20483;-80
2023/01/20 14:27:19;;;;;;;16.00;11.27;;;6.30;99.90;;;;;;4936716;29;20487;-81
2023/01/20 14:29:49;;;;;;;17.30;11.23;;;6.00;99.90;;;;;;4927844;28;20499;-81
2023/01/20 14:32:24;;;;;;;17.33;12.00;;;5.70;99.90;;;;;;4933134;29;20472;-87
2023/01/20 14:34:53;;;;;;;14.67;10.83;;;5.50;99.90;;;;;;4931096;29;20550;-81
2023/01/20 14:37:27;;;;;;;17.43;11.13;;;5.20;99.90;;;;;;4931633;29;21015;-79
2023/01/20 14:40:04;;;;;;;16.63;11.50;;;5.10;99.90;;;;;;4930375;28;20828;-91
2023/01/20 14:43:18;;;;;;;13.63;10.67;;;5.00;99.90;;;;;;4935302;28;20507;-91
2023/01/20 14:46:06;;;;;;;13.67;10.73;;;5.00;99.90;;;;;;4935685;28;20498;-89
2023/01/20 14:48:55;;;;;;;14.23;11.30;;;4.80;99.90;;;;;;4945430;28;20495;-91
2023/01/20 14:51:27;;;;;;;16.30;10.63;;;4.80;99.90;;;;;;4928881;28;20480;-90
2023/01/20 14:54:30;;;;;;;16.23;10.93;;;4.70;99.90;;;;;;4930736;29;20461;-91
2023/01/20 14:57:20;;;;;;;13.47;10.83;;;4.70;99.90;;;;;;4925182;28;20548;-92
2023/01/20 15:00:24;;;;;;;14.73;10.40;;;4.70;99.90;;;;;;4930259;28;20568;-92
2023/01/20 15:03:05;;;;;;;16.23;12.40;;;4.60;99.90;;;;;;4870625;29;20486;-92
2023/01/20 15:05:41;;;;;;;14.23;10.37;;;4.60;99.90;;;;;;4927783;28;20852;-91
2023/01/20 15:08:20;;;;;;;13.40;10.57;;;4.50;99.90;;;;;;4934799;28;20488;-92
2023/01/20 15:11:20;;;;;;;17.50;11.30;;;4.50;99.90;;;;;;4934707;28;20471;-92
2023/01/20 15:14:15;;;;;;;16.03;10.47;;;4.40;99.90;;;;;;4934732;28;20484;-93
2023/01/20 15:16:48;;;;;;;13.97;10.20;;;4.40;99.90;;;;;;4934534;28;20475;-91
2023/01/20 15:19:38;;;;;;;13.70;10.23;;;4.40;99.90;;;;;;4938266;28;20495;-91
2023/01/20 15:22:25;;;;;;;12.43;9.17;;;4.40;99.90;;;;;;4930480;28;20471;-91
2023/01/20 15:24:54;;;;;;;16.20;10.80;;;4.40;99.90;;;;;;4933904;28;20502;-91
2023/01/20 15:27:30;;;;;;;14.30;10.00;;;4.40;99.90;;;;;;4930418;28;20479;-92
2023/01/20 15:30:06;;;;;;;14.03;9.83;;;4.30;99.90;;;;;;4934661;28;20498;-91
2023/01/20 15:32:45;;;;;;;14.57;10.03;;;4.30;99.90;;;;;;4934397;28;20526;-92
2023/01/20 15:35:15;;;;;;;14.67;10.03;;;4.30;99.90;;;;;;4931765;28;20488;-93
2023/01/20 15:37:44;;;;;;;12.77;10.10;;;4.30;99.90;;;;;;4931137;28;20477;-91
2023/01/20 15:40:18;;;;;;;16.80;11.23;;;4.30;99.90;;;;;;4928489;28;20492;-90
2023/01/20 15:42:48;;;;;;;16.10;10.10;;;4.30;99.90;;;;;;4929922;28;20554;-91
2023/01/20 15:45:18;;;;;;;15.50;10.50;;;4.30;99.90;;;;;;4928309;28;20481;-91
2023/01/20 15:47:51;;;;;;;14.97;11.43;;;4.30;99.90;;;;;;4928826;28;20468;-92
2023/01/20 15:50:47;;;;;;;16.97;12.03;;;4.30;99.90;;;;;;4938810;28;20868;-91
2023/01/20 15:53:16;;;;;;;18.93;13.67;;;4.20;99.90;;;;;;4947268;28;20483;-91
2023/01/20 15:55:50;;;;;;;18.60;12.20;;;4.20;99.90;;;;;;4947340;28;20479;-91
2023/01/20 15:58:25;;;;;;;19.70;12.60;;;4.20;99.90;;;;;;4936572;28;20484;-91
2023/01/20 16:01:00;;;;;;;24.47;14.17;;;4.10;99.90;;;;;;4925316;29;20487;-92
2023/01/20 16:03:34;;;;;;;16.93;12.50;;;4.10;99.90;;;;;;4933834;28;20469;-91
2023/01/20 16:06:14;;;;;;;18.30;13.13;;;4.00;99.90;;;;;;4923788;29;20464;-91
2023/01/20 16:08:45;;;;;;;23.17;14.43;;;3.90;99.90;;;;;;4932796;28;20476;-89
2023/01/20 16:11:14;;;;;;;17.07;13.13;;;3.90;99.90;;;;;;4946924;28;20490;-91
2023/01/20 16:13:46;;;;;;;29.90;14.37;;;3.90;99.90;;;;;;4944145;28;20465;-91
2023/01/20 16:16:22;;;;;;;19.10;13.10;;;3.90;99.90;;;;;;4947842;28;20471;-92
2023/01/20 16:18:51;;;;;;;21.23;14.77;;;3.80;99.90;;;;;;4934800;28;20476;-91
2023/01/20 16:21:23;;;;;;;20.50;13.70;;;3.80;99.90;;;;;;4925599;28;21334;-91
2023/01/20 16:23:52;;;;;;;18.53;13.63;;;3.80;99.90;;;;;;4923966;29;20453;-91
2023/01/20 16:26:24;;;;;;;19.43;13.27;;;3.70;99.90;;;;;;4924952;29;20471;-89
2023/01/20 16:28:57;;;;;;;23.33;14.67;;;3.70;99.90;;;;;;4933883;28;20507;-91
2023/01/20 16:31:28;;;;;;;22.10;14.70;;;3.70;99.90;;;;;;4950403;28;20447;-91
2023/01/20 16:33:59;;;;;;;20.60;14.40;;;3.60;99.90;;;;;;4947168;28;20495;-91
2023/01/20 16:36:28;;;;;;;22.03;15.17;;;3.60;99.90;;;;;;4952607;28;20452;-91
2023/01/20 16:38:59;;;;;;;19.10;13.93;;;3.60;99.90;;;;;;4945754;28;21063;-90
2023/01/20 16:41:30;;;;;;;23.67;14.23;;;3.60;99.90;;;;;;4944162;28;20511;-89
2023/01/20 16:43:59;;;;;;;22.10;15.27;;;3.50;99.90;;;;;;4944328;28;20491;-89
2023/01/20 16:46:38;;;;;;;23.80;14.33;;;3.50;99.90;;;;;;4934853;28;20503;-92
2023/01/20 16:49:06;;;;;;;19.30;14.00;;;3.50;99.90;;;;;;4930525;28;20468;-92
2023/01/20 16:51:34;;;;;;;23.70;16.40;;;3.50;99.90;;;;;;4932353;29;20532;-91
2023/01/20 16:54:03;;;;;;;25.30;15.80;;;3.50;99.90;;;;;;4921431;28;20495;-91
2023/01/20 16:56:32;;;;;;;24.60;16.77;;;3.50;99.90;;;;;;4932227;29;20465;-91
2023/01/20 16:59:02;;;;;;;25.20;16.27;;;3.40;99.90;;;;;;4934764;28;20476;-90
2023/01/20 17:01:32;;;;;;;24.97;16.43;;;3.40;99.90;;;;;;4949171;28;20547;-89
2023/01/20 17:04:05;;;;;;;25.83;16.53;;;3.40;99.90;;;;;;4944542;28;20542;-91
2023/01/20 17:06:35;;;;;;;24.60;17.20;;;3.40;99.90;;;;;;4950061;28;20494;-91
2023/01/20 17:09:08;;;;;;;26.23;16.27;;;3.40;99.90;;;;;;4937854;28;20488;-91
2023/01/20 17:11:39;;;;;;;29.80;19.87;;;3.30;99.90;;;;;;4926048;29;20465;-91
2023/01/20 17:14:11;;;;;;;28.40;18.10;;;3.30;99.90;;;;;;4919297;29;20532;-92
2023/01/20 17:16:40;;;;;;;29.53;19.30;;;3.20;99.90;;;;;;4928359;29;20475;-89
2023/01/20 17:19:11;;;;;;;27.83;19.50;;;3.20;99.90;;;;;;4926564;28;20551;-91
2023/01/20 17:21:43;;;;;;;28.90;18.70;;;3.10;99.90;;;;;;4912059;29;20519;-91
2023/01/20 17:24:12;;;;;;;26.23;18.43;;;3.10;99.90;;;;;;4928223;28;20461;-91
2023/01/20 17:26:41;;;;;;;29.33;19.37;;;3.10;99.90;;;;;;4926276;28;20480;-90
2023/01/20 17:29:13;;;;;;;28.63;19.90;;;3.00;99.90;;;;;;4926905;28;20513;-91
2023/01/20 17:31:43;;;;;;;27.33;20.13;;;3.00;99.90;;;;;;4927594;28;20560;-91
2023/01/20 17:34:19;;;;;;;28.87;20.53;;;3.00;99.90;;;;;;4933208;28;20459;-90
2023/01/20 17:36:48;;;;;;;28.30;21.00;;;3.00;99.90;;;;;;4930276;28;20555;-91
2023/01/20 17:39:17;;;;;;;29.93;20.63;;;3.00;99.90;;;;;;4932066;28;20484;-91
2023/01/20 17:41:45;;;;;;;32.13;21.07;;;3.00;99.90;;;;;;4920425;28;20495;-90
2023/01/20 17:44:14;;;;;;;31.47;22.73;;;3.00;99.90;;;;;;4922987;28;20449;-90
2023/01/20 17:46:47;;;;;;;30.40;21.13;;;3.00;99.90;;;;;;4933342;28;20475;-91
2023/01/20 17:49:16;;;;;;;31.10;21.30;;;3.00;99.90;;;;;;4917902;28;20491;-90
2023/01/20 17:51:46;;;;;;;33.53;21.50;;;3.00;99.90;;;;;;4925552;28;20504;-89
2023/01/20 17:54:15;;;;;;;30.57;20.83;;;3.00;99.90;;;;;;4930969;28;20610;-89
2023/01/20 17:56:44;;;;;;;32.10;21.40;;;3.00;99.90;;;;;;4932356;28;20488;-90
2023/01/20 17:59:15;;;;;;;29.53;19.83;;;3.00;99.90;;;;;;4928556;28;20792;-90
2023/01/20 18:01:51;;;;;;;31.57;21.07;;;3.00;99.90;;;;;;4927801;28;20465;-90
2023/01/20 18:04:19;;;;;;;27.93;19.83;;;3.00;99.90;;;;;;4934450;28;20527;-89
2023/01/20 18:06:49;;;;;;;32.03;20.73;;;2.90;99.90;;;;;;4928471;28;20481;-89
2023/01/20 18:09:18;;;;;;;31.63;20.30;;;2.90;99.90;;;;;;4928431;28;20508;-91
2023/01/20 18:11:47;;;;;;;30.10;20.10;;;2.90;99.90;;;;;;4923817;29;20485;-91
2023/01/20 18:14:15;;;;;;;33.03;20.80;;;3.00;99.90;;;;;;4929621;28;20516;-90
2023/01/20 18:16:43;;;;;;;28.63;19.10;;;3.00;99.90;;;;;;4931652;28;20487;-91
2023/01/20 18:19:12;;;;;;;29.60;18.93;;;3.00;99.90;;;;;;4936047;28;20555;-89
2023/01/20 18:21:42;;;;;;;27.83;19.23;;;3.00;99.90;;;;;;4934186;28;21180;-90
2023/01/20 18:24:12;;;;;;;27.17;19.10;;;3.00;99.90;;;;;;4941238;28;20475;-80
2023/01/20 18:26:42;;;;;;;32.60;20.80;;;3.00;99.90;;;;;;4932354;28;20513;-80
2023/01/20 18:29:16;;;;;;;31.47;20.13;;;3.00;99.90;;;;;;4931792;28;20480;-85
2023/01/20 18:31:45;;;;;;;37.50;20.50;;;3.00;99.90;;;;;;4925604;28;20456;-84
2023/01/20 18:34:15;;;;;;;31.07;19.80;;;3.00;99.90;;;;;;4930431;28;20473;-86
2023/01/20 18:36:45;;;;;;;27.80;18.60;;;3.00;99.90;;;;;;4934577;28;20471;-80
2023/01/20 18:39:17;;;;;;;27.90;18.40;;;3.00;99.90;;;;;;4934221;28;20476;-85
2023/01/20 18:41:45;;;;;;;26.73;18.70;;;3.00;99.90;;;;;;4919088;28;21860;-78
2023/01/20 18:44:13;;;;;;;31.83;20.43;;;3.00;99.90;;;;;;4928587;28;20476;-84
2023/01/20 18:46:41;;;;;;;26.10;18.60;;;3.00;99.90;;;;;;4933184;28;20489;-80
2023/01/20 18:49:12;;;;;;;31.60;19.20;;;3.00;99.90;;;;;;4939797;28;20472;-79
2023/01/20 18:51:41;;;;;;;26.23;18.47;;;3.00;99.90;;;;;;4929888;28;20449;-81
2023/01/20 18:54:12;;;;;;;28.37;18.73;;;3.00;99.90;;;;;;4932551;28;20581;-80
2023/01/20 18:56:42;;;;;;;27.40;18.80;;;3.00;99.90;;;;;;4925822;28;20472;-78
2023/01/20 18:59:11;;;;;;;31.20;19.57;;;3.00;99.90;;;;;;4927980;28;20476;-77
2023/01/20 19:01:42;;;;;;;30.53;19.70;;;3.00;99.90;;;;;;4933639;28;20515;-79
2023/01/20 19:04:12;;;;;;;28.97;19.10;;;3.00;99.90;;;;;;4959459;23;20494;-73
2023/01/20 19:06:42;;;;;;;25.53;17.90;;;3.00;99.90;;;;;;4958688;28;20619;-73
2023/01/20 19:09:14;;;;;;;29.33;19.80;;;2.90;99.90;;;;;;4962186;28;20491;-73
2023/01/20 19:11:44;;;;;;;27.43;18.90;;;2.90;99.90;;;;;;4955591;28;20473;-73
2023/01/20 19:14:14;;;;;;;28.90;19.47;;;2.90;99.90;;;;;;4943545;28;20496;-73
2023/01/20 19:16:44;;;;;;;26.47;18.40;;;2.90;99.90;;;;;;4936074;29;21035;-76
2023/01/20 19:19:13;;;;;;;29.53;18.97;;;2.90;99.90;;;;;;4926511;29;20491;-73
2023/01/20 19:21:41;;;;;;;28.20;18.83;;;2.90;99.90;;;;;;4929862;28;20866;-73
2023/01/20 19:24:19;;;;;;;30.30;18.83;;;2.90;99.90;;;;;;4933286;29;20495;-72
2023/01/20 19:26:48;;;;;;;30.70;20.70;;;2.90;99.90;;;;;;4938014;29;20470;-70
2023/01/20 19:29:17;;;;;;;30.00;19.37;;;2.90;99.90;;;;;;4938864;28;20502;-72
2023/01/20 19:31:45;;;;;;;28.93;18.80;;;2.90;99.90;;;;;;4946560;28;20850;-71
2023/01/20 19:34:14;;;;;;;28.17;18.90;;;2.90;99.90;;;;;;4952404;28;20505;-71
2023/01/20 19:36:41;;;;;;;29.60;19.37;;;2.90;99.90;;;;;;4957054;28;20482;-72
2023/01/20 19:39:12;;;;;;;31.20;18.83;;;2.90;99.90;;;;;;4963589;28;20490;-72
2023/01/20 19:41:42;;;;;;;34.37;19.83;;;2.90;99.90;;;;;;4962820;28;20461;-71
2023/01/20 19:44:12;;;;;;;30.50;20.60;;;2.90;99.90;;;;;;4955015;28;23145;-72
2023/01/20 19:46:40;;;;;;;29.23;19.27;;;2.90;99.90;;;;;;4955567;28;20466;-71
2023/01/20 19:49:10;;;;;;;28.60;19.90;;;2.90;99.90;;;;;;4962484;28;21118;-72
2023/01/20 19:51:38;;;;;;;28.90;20.13;;;2.90;99.90;;;;;;4957436;28;21380;-72
2023/01/20 19:54:07;;;;;;;31.83;21.60;;;2.90;99.90;;;;;;4963689;28;20906;-72
2023/01/20 19:56:35;;;;;;;28.80;19.93;;;2.90;99.90;;;;;;4961385;28;20473;-72
2023/01/20 19:59:05;;;;;;;29.87;19.80;;;2.80;99.90;;;;;;4950788;28;20479;-72
2023/01/20 20:01:36;;;;;;;31.30;21.50;;;2.90;99.90;;;;;;4936824;29;20562;-72
2023/01/20 20:04:06;;;;;;;28.90;19.27;;;2.90;99.90;;;;;;4940766;29;20563;-72
2023/01/20 20:06:35;;;;;;;31.50;19.93;;;2.90;99.90;;;;;;4954896;29;20475;-71
2023/01/20 20:09:05;;;;;;;32.20;19.93;;;2.90;99.90;;;;;;4966757;28;20479;-71
2023/01/20 20:11:34;;;;;;;29.27;19.70;;;2.90;99.90;;;;;;4988512;28;20471;-71
2023/01/20 20:14:05;;;;;;;29.10;18.10;;;2.90;99.90;;;;;;4974254;28;20491;-71
2023/01/20 20:16:36;;;;;;;31.57;21.43;;;3.00;99.90;;;;;;4983020;28;20482;-71
2023/01/20 20:19:05;;;;;;;29.13;19.60;;;2.90;99.90;;;;;;4970728;28;20846;-71
2023/01/20 20:21:34;;;;;;;28.07;18.80;;;2.90;99.90;;;;;;4954765;28;20493;-72
2023/01/20 20:24:03;;;;;;;34.23;20.10;;;2.90;99.90;;;;;;4962582;28;20509;-72
2023/01/20 20:26:34;;;;;;;31.93;21.10;;;2.90;99.90;;;;;;4967942;28;20530;-72
2023/01/20 20:29:03;;;;;;;29.17;19.93;;;2.90;99.90;;;;;;4962874;28;20483;-72
2023/01/20 20:31:32;;;;;;;28.03;18.90;;;2.90;99.90;;;;;;4964533;28;20479;-72
2023/01/20 20:34:03;;;;;;;28.10;18.90;;;2.90;99.90;;;;;;4965485;28;20512;-72
2023/01/20 20:36:32;;;;;;;29.70;18.27;;;2.90;99.90;;;;;;4967358;28;20477;-72
2023/01/20 20:39:01;;;;;;;31.37;20.53;;;2.90;99.90;;;;;;4967475;28;20544;-72
2023/01/20 20:41:30;;;;;;;32.20;20.20;;;2.90;99.90;;;;;;4968354;28;20475;-72
2023/01/20 20:43:59;;;;;;;30.07;18.83;;;2.90;99.90;;;;;;4966626;28;20514;-72
2023/01/20 20:46:28;;;;;;;33.47;21.10;;;2.90;99.90;;;;;;4959093;28;20526;-73
2023/01/20 20:48:58;;;;;;;34.50;21.00;;;2.80;99.90;;;;;;4967725;28;20514;-72
2023/01/20 20:51:30;;;;;;;32.20;20.87;;;2.80;99.90;;;;;;4963589;28;20470;-72
2023/01/20 20:53:59;;;;;;;28.83;19.33;;;2.80;99.90;;;;;;4961698;28;21147;-72
2023/01/20 20:56:30;;;;;;;28.27;19.63;;;2.80;99.90;;;;;;4962262;28;20482;-72
2023/01/20 20:58:59;;;;;;;31.00;20.00;;;2.80;99.90;;;;;;4957840;28;20490;-73
2023/01/20 21:01:30;;;;;;;30.13;20.97;;;2.80;99.90;;;;;;4962684;28;20474;-72
2023/01/20 21:03:59;;;;;;;30.30;20.00;;;2.80;99.90;;;;;;4958499;28;20653;-72
2023/01/20 21:06:29;;;;;;;32.97;21.33;;;2.80;99.90;;;;;;4955157;28;20550;-71
2023/01/20 21:08:58;;;;;;;31.50;19.57;;;2.90;99.90;;;;;;4958299;28;21018;-72
2023/01/20 21:11:26;;;;;;;29.50;21.13;;;2.90;99.90;;;;;;4957301;28;21188;-72
2023/01/20 21:13:55;;;;;;;32.67;20.40;;;2.90;99.90;;;;;;4960686;28;20862;-72
2023/01/20 21:16:24;;;;;;;30.57;19.20;;;2.90;99.90;;;;;;4956717;28;20479;-72
2023/01/20 21:18:54;;;;;;;29.60;19.93;;;2.90;99.90;;;;;;4962018;28;20486;-72
2023/01/20 21:21:24;;;;;;;27.50;19.87;;;2.90;99.90;;;;;;4961709;28;20475;-72